JST713 YMML-YMHB
Flight info
| Callsign | JST713 |
|---|---|
| Flight time | N/A |
| Altitude | 35000 |
| Route | SUNTI4/27 SUNTI H169 IRSOM V33 MORGO |
| Aircraft | A21N/M-SDE2E3FGHIRWXY/LB1 |
Departure
| Time | N/A |
|---|---|
| Airport | Melbourne Airport (YMML) |
Arrival
| Time | 2026-04-26 07:53 |
|---|---|
| Airport | Hobart International Airport (YMHB) |
| Time | Latitude | Longitude | Altitude | Speed | Heading |
|---|---|---|---|---|---|
| 2026-04-26 07:07 | -38.81836 | 145.35034 | 35160 ft | 446 kts | 163° |
| 2026-04-26 07:08 | -38.87669 | 145.37615 | 35206 ft | 442 kts | 163° |
| 2026-04-26 07:08 | -38.93489 | 145.40201 | 35196 ft | 442 kts | 163° |
| 2026-04-26 07:09 | -38.99304 | 145.42792 | 35193 ft | 441 kts | 163° |
| 2026-04-26 07:09 | -39.05074 | 145.45362 | 35193 ft | 441 kts | 163° |
| 2026-04-26 07:11 | -39.19620 | 145.51859 | 35192 ft | 442 kts | 163° |
| 2026-04-26 07:11 | -39.25433 | 145.54465 | 35187 ft | 448 kts | 162° |
| 2026-04-26 07:12 | -39.31327 | 145.57113 | 35187 ft | 448 kts | 162° |
| 2026-04-26 07:12 | -39.37226 | 145.59763 | 35185 ft | 448 kts | 162° |
| 2026-04-26 07:13 | -39.43078 | 145.62400 | 35186 ft | 448 kts | 162° |
| 2026-04-26 07:13 | -39.48964 | 145.65064 | 35186 ft | 447 kts | 162° |
| 2026-04-26 07:14 | -39.54864 | 145.67730 | 35193 ft | 448 kts | 162° |
| 2026-04-26 07:14 | -39.60711 | 145.70377 | 35187 ft | 447 kts | 162° |
| 2026-04-26 07:15 | -39.66610 | 145.73054 | 35185 ft | 451 kts | 162° |
| 2026-04-26 07:15 | -39.72545 | 145.75759 | 35185 ft | 451 kts | 162° |
| 2026-04-26 07:16 | -39.78480 | 145.78461 | 35190 ft | 451 kts | 162° |
| 2026-04-26 07:16 | -39.84347 | 145.81140 | 35184 ft | 448 kts | 162° |
| 2026-04-26 07:17 | -39.90277 | 145.83857 | 35181 ft | 452 kts | 162° |
| 2026-04-26 07:17 | -39.96224 | 145.86576 | 35177 ft | 453 kts | 162° |
| 2026-04-26 07:18 | -40.02170 | 145.89309 | 35185 ft | 451 kts | 162° |
| 2026-04-26 07:18 | -40.08000 | 145.92013 | 35172 ft | 452 kts | 162° |
| 2026-04-26 07:19 | -40.13941 | 145.94770 | 35165 ft | 453 kts | 162° |
| 2026-04-26 07:19 | -40.19890 | 145.97533 | 35169 ft | 453 kts | 162° |
| 2026-04-26 07:20 | -40.25808 | 146.00289 | 35172 ft | 452 kts | 162° |
| 2026-04-26 07:20 | -40.31729 | 146.03053 | 35168 ft | 452 kts | 162° |
| 2026-04-26 07:21 | -40.37666 | 146.05829 | 35166 ft | 452 kts | 162° |
| 2026-04-26 07:21 | -40.43589 | 146.08595 | 35162 ft | 452 kts | 162° |
| 2026-04-26 07:22 | -40.49470 | 146.11357 | 35166 ft | 451 kts | 162° |
| 2026-04-26 07:22 | -40.55407 | 146.14144 | 35155 ft | 452 kts | 162° |
| 2026-04-26 07:23 | -40.61339 | 146.16939 | 35155 ft | 453 kts | 162° |
| 2026-04-26 07:23 | -40.67274 | 146.19742 | 35150 ft | 453 kts | 162° |
| 2026-04-26 07:24 | -40.73177 | 146.22528 | 35151 ft | 454 kts | 162° |
| 2026-04-26 07:24 | -40.79131 | 146.25350 | 35148 ft | 454 kts | 162° |
| 2026-04-26 07:25 | -40.85079 | 146.28169 | 35148 ft | 454 kts | 162° |
| 2026-04-26 07:25 | -40.91020 | 146.30993 | 35146 ft | 454 kts | 162° |
| 2026-04-26 07:26 | -40.96978 | 146.33833 | 35144 ft | 456 kts | 162° |
| 2026-04-26 07:26 | -41.02937 | 146.36676 | 35140 ft | 454 kts | 162° |
| 2026-04-26 07:27 | -41.08849 | 146.39505 | 35144 ft | 454 kts | 162° |
| 2026-04-26 07:27 | -41.14799 | 146.42351 | 35140 ft | 457 kts | 162° |
| 2026-04-26 07:28 | -41.20629 | 146.45656 | 34473 ft | 456 kts | 156° |
| 2026-04-26 07:28 | -41.23523 | 146.47487 | 33323 ft | 466 kts | 156° |
| 2026-04-26 07:28 | -41.26474 | 146.49355 | 32375 ft | 471 kts | 156° |
| 2026-04-26 07:28 | -41.29426 | 146.51221 | 31707 ft | 469 kts | 156° |
| 2026-04-26 07:29 | -41.32367 | 146.53082 | 31139 ft | 465 kts | 156° |
| 2026-04-26 07:29 | -41.35247 | 146.54905 | 30570 ft | 462 kts | 156° |
| 2026-04-26 07:29 | -41.38135 | 146.56734 | 29957 ft | 459 kts | 156° |
| 2026-04-26 07:29 | -41.41012 | 146.58556 | 29342 ft | 455 kts | 156° |
| 2026-04-26 07:30 | -41.43854 | 146.60357 | 28776 ft | 450 kts | 156° |
| 2026-04-26 07:30 | -41.46664 | 146.62135 | 28250 ft | 445 kts | 156° |
| 2026-04-26 07:30 | -41.49444 | 146.63896 | 27763 ft | 439 kts | 156° |
| 2026-04-26 07:30 | -41.52188 | 146.65643 | 27285 ft | 434 kts | 156° |
| 2026-04-26 07:31 | -41.54864 | 146.67347 | 26797 ft | 429 kts | 157° |
| 2026-04-26 07:31 | -41.57549 | 146.69052 | 26324 ft | 424 kts | 157° |
| 2026-04-26 07:31 | -41.60203 | 146.70739 | 25873 ft | 420 kts | 157° |
| 2026-04-26 07:31 | -41.62826 | 146.72414 | 25428 ft | 415 kts | 157° |
| 2026-04-26 07:32 | -41.65424 | 146.74074 | 24973 ft | 412 kts | 157° |
| 2026-04-26 07:32 | -41.67999 | 146.75729 | 24511 ft | 409 kts | 157° |
| 2026-04-26 07:32 | -41.70552 | 146.77381 | 24058 ft | 406 kts | 157° |
| 2026-04-26 07:32 | -41.73092 | 146.79025 | 23594 ft | 403 kts | 158° |
| 2026-04-26 07:33 | -41.75607 | 146.80659 | 23081 ft | 400 kts | 158° |
| 2026-04-26 07:33 | -41.78069 | 146.82254 | 22630 ft | 395 kts | 158° |
| 2026-04-26 07:33 | -41.80543 | 146.83858 | 22163 ft | 394 kts | 158° |
| 2026-04-26 07:33 | -41.83005 | 146.85456 | 21711 ft | 393 kts | 158° |
| 2026-04-26 07:34 | -41.85464 | 146.87053 | 21258 ft | 392 kts | 159° |
| 2026-04-26 07:34 | -41.87912 | 146.88648 | 20818 ft | 389 kts | 158° |
| 2026-04-26 07:34 | -41.90351 | 146.90236 | 20408 ft | 387 kts | 158° |
| 2026-04-26 07:34 | -41.92772 | 146.91811 | 20008 ft | 385 kts | 159° |
| 2026-04-26 07:35 | -41.95151 | 146.93357 | 19600 ft | 385 kts | 159° |
| 2026-04-26 07:35 | -41.97565 | 146.94928 | 19197 ft | 384 kts | 159° |
| 2026-04-26 07:35 | -41.99978 | 146.96498 | 18809 ft | 384 kts | 159° |
| 2026-04-26 07:35 | -42.02380 | 146.98064 | 18410 ft | 384 kts | 159° |
| 2026-04-26 07:36 | -42.04791 | 146.99639 | 17974 ft | 386 kts | 159° |
| 2026-04-26 07:36 | -42.07205 | 147.01219 | 17542 ft | 384 kts | 159° |
| 2026-04-26 07:36 | -42.09611 | 147.02797 | 17141 ft | 384 kts | 159° |
| 2026-04-26 07:36 | -42.11983 | 147.04351 | 16757 ft | 384 kts | 159° |
| 2026-04-26 07:37 | -42.14386 | 147.05928 | 16369 ft | 383 kts | 159° |
| 2026-04-26 07:37 | -42.16771 | 147.07552 | 15980 ft | 383 kts | 154° |
| 2026-04-26 07:37 | -42.18882 | 147.09735 | 15600 ft | 382 kts | 141° |
| 2026-04-26 07:37 | -42.20789 | 147.12121 | 15249 ft | 376 kts | 140° |
| 2026-04-26 07:38 | -42.22682 | 147.14513 | 14893 ft | 371 kts | 140° |
| 2026-04-26 07:38 | -42.24569 | 147.16879 | 14497 ft | 369 kts | 140° |
| 2026-04-26 07:38 | -42.26461 | 147.19242 | 14104 ft | 368 kts | 140° |
| 2026-04-26 07:38 | -42.28319 | 147.21555 | 13738 ft | 366 kts | 140° |
| 2026-04-26 07:39 | -42.30203 | 147.23897 | 13331 ft | 367 kts | 140° |
| 2026-04-26 07:39 | -42.32147 | 147.26133 | 12954 ft | 363 kts | 149° |
| 2026-04-26 07:39 | -42.34304 | 147.27858 | 12595 ft | 359 kts | 156° |
| 2026-04-26 07:39 | -42.36498 | 147.29469 | 12210 ft | 358 kts | 156° |
| 2026-04-26 07:40 | -42.38665 | 147.31059 | 11852 ft | 358 kts | 155° |
| 2026-04-26 07:40 | -42.40856 | 147.32682 | 11488 ft | 357 kts | 155° |
| 2026-04-26 07:40 | -42.43032 | 147.34303 | 11129 ft | 357 kts | 155° |
| 2026-04-26 07:40 | -42.45207 | 147.35927 | 10777 ft | 356 kts | 155° |
| 2026-04-26 07:41 | -42.47360 | 147.37542 | 10450 ft | 351 kts | 155° |
| 2026-04-26 07:41 | -42.49463 | 147.39125 | 10227 ft | 338 kts | 155° |
| 2026-04-26 07:41 | -42.51486 | 147.40645 | 10028 ft | 327 kts | 155° |
| 2026-04-26 07:41 | -42.53440 | 147.42112 | 9683 ft | 324 kts | 155° |
| 2026-04-26 07:42 | -42.55408 | 147.43591 | 9283 ft | 321 kts | 155° |
| 2026-04-26 07:42 | -42.57353 | 147.45056 | 8920 ft | 319 kts | 155° |
| 2026-04-26 07:42 | -42.59269 | 147.46587 | 8591 ft | 319 kts | 148° |
| 2026-04-26 07:42 | -42.61017 | 147.48455 | 8273 ft | 320 kts | 142° |
| 2026-04-26 07:43 | -42.62711 | 147.50399 | 7960 ft | 318 kts | 142° |
| 2026-04-26 07:43 | -42.64380 | 147.52320 | 7642 ft | 316 kts | 142° |
| 2026-04-26 07:43 | -42.66047 | 147.54234 | 7321 ft | 312 kts | 142° |
| 2026-04-26 07:43 | -42.67684 | 147.56104 | 7019 ft | 310 kts | 142° |
| 2026-04-26 07:44 | -42.69328 | 147.57973 | 6724 ft | 307 kts | 142° |
| 2026-04-26 07:44 | -42.70963 | 147.59836 | 6431 ft | 306 kts | 142° |
| 2026-04-26 07:44 | -42.72589 | 147.61693 | 6133 ft | 304 kts | 142° |
| 2026-04-26 07:44 | -42.74198 | 147.63530 | 5824 ft | 299 kts | 142° |
| 2026-04-26 07:45 | -42.75784 | 147.65341 | 5520 ft | 296 kts | 142° |
| 2026-04-26 07:45 | -42.77349 | 147.67133 | 5242 ft | 291 kts | 143° |
| 2026-04-26 07:45 | -42.78873 | 147.68879 | 5051 ft | 281 kts | 141° |
| 2026-04-26 07:45 | -42.80320 | 147.70537 | 4834 ft | 270 kts | 141° |
| 2026-04-26 07:46 | -42.81751 | 147.72172 | 4575 ft | 267 kts | 141° |
| 2026-04-26 07:46 | -42.83172 | 147.73803 | 4297 ft | 266 kts | 140° |
| 2026-04-26 07:46 | -42.84595 | 147.75412 | 4024 ft | 265 kts | 145° |
| 2026-04-26 07:46 | -42.86179 | 147.76453 | 3898 ft | 240 kts | 174° |
| 2026-04-26 07:47 | -42.87727 | 147.76356 | 3908 ft | 208 kts | 204° |
| 2026-04-26 07:47 | -42.88940 | 147.75549 | 3955 ft | 186 kts | 216° |
| 2026-04-26 07:47 | -42.89997 | 147.74731 | 3955 ft | 167 kts | 216° |
| 2026-04-26 07:47 | -42.91021 | 147.73990 | 3962 ft | 167 kts | 214° |
| 2026-04-26 07:48 | -42.92049 | 147.73265 | 3973 ft | 166 kts | 218° |
| 2026-04-26 07:48 | -42.92801 | 147.72199 | 3917 ft | 151 kts | 257° |
| 2026-04-26 07:48 | -42.92870 | 147.70826 | 3655 ft | 143 kts | 277° |
| 2026-04-26 07:48 | -42.92829 | 147.69474 | 3399 ft | 142 kts | 275° |
| 2026-04-26 07:49 | -42.92832 | 147.68122 | 3144 ft | 142 kts | 273° |
| 2026-04-26 07:49 | -42.92827 | 147.66793 | 2861 ft | 141 kts | 273° |
| 2026-04-26 07:49 | -42.92828 | 147.65454 | 2580 ft | 140 kts | 274° |
| 2026-04-26 07:50 | -42.92505 | 147.62999 | 2081 ft | 134 kts | 314° |
| 2026-04-26 07:50 | -42.91773 | 147.62215 | 1955 ft | 133 kts | 314° |
| 2026-04-26 07:50 | -42.91110 | 147.61332 | 1794 ft | 135 kts | 313° |
| 2026-04-26 07:50 | -42.90437 | 147.60427 | 1623 ft | 136 kts | 312° |
| 2026-04-26 07:51 | -42.89770 | 147.59522 | 1455 ft | 134 kts | 314° |
| 2026-04-26 07:51 | -42.89112 | 147.58625 | 1276 ft | 134 kts | 313° |
| 2026-04-26 07:51 | -42.88444 | 147.57707 | 1065 ft | 139 kts | 313° |
| 2026-04-26 07:51 | -42.87754 | 147.56791 | 891 ft | 142 kts | 315° |
| 2026-04-26 07:52 | -42.87047 | 147.55821 | 705 ft | 146 kts | 314° |
| 2026-04-26 07:52 | -42.86328 | 147.54841 | 517 ft | 147 kts | 316° |
| 2026-04-26 07:52 | -42.85602 | 147.53868 | 327 ft | 145 kts | 316° |
| 2026-04-26 07:52 | -42.84893 | 147.52914 | 142 ft | 142 kts | 316° |
| 2026-04-26 07:53 | -42.84198 | 147.51962 | 31 ft | 137 kts | 316° |
| 2026-04-26 07:53 | -42.83652 | 147.51229 | 27 ft | 70 kts | 316° |
| 2026-04-26 07:53 | -42.83514 | 147.51039 | 27 ft | 0 kts | 314° |
| 2026-04-26 07:53 | -42.83490 | 147.51007 | 27 ft | 16 kts | 315° |
| 2026-04-26 07:54 | -42.83407 | 147.50894 | 27 ft | 18 kts | 315° |
| 2026-04-26 07:54 | -42.83322 | 147.50764 | 27 ft | 19 kts | 288° |
| 2026-04-26 07:54 | -42.83355 | 147.50592 | 27 ft | 18 kts | 224° |
| 2026-04-26 07:54 | -42.83422 | 147.50552 | 27 ft | 12 kts | 160° |
| 2026-04-26 07:55 | -42.83484 | 147.50636 | 27 ft | 14 kts | 140° |
| 2026-04-26 07:55 | -42.83569 | 147.50688 | 27 ft | 16 kts | 207° |
| 2026-04-26 07:55 | -42.83642 | 147.50600 | 27 ft | 0 kts | 231° |
| 2026-04-26 07:55 | -42.83643 | 147.50598 | 27 ft | 1 kts | 228° |
| 2026-04-26 07:56 | -42.83651 | 147.50588 | 27 ft | 3 kts | 223° |
| 2026-04-26 07:56 | -42.83653 | 147.50585 | 27 ft | 0 kts | 223° |